sensor_id;sensor_type;location;lat;lon;timestamp;P1;durP1;ratioP1;P2;durP2;ratioP2
66601;SDS011;53459;51.828;7.872;2022-09-12T00:18:32;52.55;;;21.10;;
66601;SDS011;53459;51.828;7.872;2022-09-12T00:21:00;43.88;;;20.42;;
66601;SDS011;53459;51.828;7.872;2022-09-12T00:23:28;47.53;;;21.45;;
66601;SDS011;53459;51.828;7.872;2022-09-12T00:27:06;39.15;;;19.25;;
66601;SDS011;53459;51.828;7.872;2022-09-12T00:29:32;41.00;;;18.80;;
66601;SDS011;53459;51.828;7.872;2022-09-12T00:32:50;42.58;;;20.55;;
66601;SDS011;53459;51.828;7.872;2022-09-12T00:36:12;42.95;;;20.35;;
66601;SDS011;53459;51.828;7.872;2022-09-12T00:39:30;37.00;;;18.70;;
66601;SDS011;53459;51.828;7.872;2022-09-12T00:42:48;37.70;;;17.90;;
66601;SDS011;53459;51.828;7.872;2022-09-12T00:50:02;36.78;;;18.38;;
66601;SDS011;53459;51.828;7.872;2022-09-12T00:53:22;38.75;;;18.77;;
66601;SDS011;53459;51.828;7.872;2022-09-12T00:56:43;38.20;;;17.90;;
66601;SDS011;53459;51.828;7.872;2022-09-12T01:00:17;35.60;;;16.63;;
66601;SDS011;53459;51.828;7.872;2022-09-12T01:03:36;32.10;;;16.33;;
66601;SDS011;53459;51.828;7.872;2022-09-12T01:06:55;30.45;;;15.90;;
66601;SDS011;53459;51.828;7.872;2022-09-12T01:10:16;36.10;;;18.15;;
66601;SDS011;53459;51.828;7.872;2022-09-12T01:44:49;34.30;;;15.30;;
66601;SDS011;53459;51.828;7.872;2022-09-12T01:48:18;41.23;;;18.37;;
66601;SDS011;53459;51.828;7.872;2022-09-12T01:51:53;42.93;;;18.77;;
66601;SDS011;53459;51.828;7.872;2022-09-12T01:55:17;36.63;;;16.38;;
66601;SDS011;53459;51.828;7.872;2022-09-12T01:58:41;51.10;;;19.55;;
66601;SDS011;53459;51.828;7.872;2022-09-12T02:02:11;38.90;;;18.00;;
66601;SDS011;53459;51.828;7.872;2022-09-12T02:05:40;33.80;;;16.23;;
66601;SDS011;53459;51.828;7.872;2022-09-12T02:09:08;33.67;;;16.95;;
66601;SDS011;53459;51.828;7.872;2022-09-12T02:12:37;33.88;;;16.50;;
66601;SDS011;53459;51.828;7.872;2022-09-12T02:16:12;33.40;;;16.60;;
66601;SDS011;53459;51.828;7.872;2022-09-12T02:19:44;34.03;;;16.30;;
66601;SDS011;53459;51.828;7.872;2022-09-12T02:23:05;33.13;;;16.45;;
66601;SDS011;53459;51.828;7.872;2022-09-12T02:27:09;29.58;;;14.80;;
66601;SDS011;53459;51.828;7.872;2022-09-12T02:30:13;29.25;;;14.77;;
66601;SDS011;53459;51.828;7.872;2022-09-12T02:37:22;26.33;;;12.95;;
66601;SDS011;53459;51.828;7.872;2022-09-12T02:41:02;31.40;;;15.53;;
66601;SDS011;53459;51.828;7.872;2022-09-12T02:44:23;31.73;;;16.13;;
66601;SDS011;53459;51.828;7.872;2022-09-12T02:47:44;28.85;;;14.65;;
66601;SDS011;53459;51.828;7.872;2022-09-12T02:51:06;29.93;;;14.10;;
66601;SDS011;53459;51.828;7.872;2022-09-12T02:54:25;29.67;;;14.88;;
66601;SDS011;53459;51.828;7.872;2022-09-12T02:57:44;29.85;;;14.18;;
66601;SDS011;53459;51.828;7.872;2022-09-12T03:01:06;28.65;;;13.43;;
66601;SDS011;53459;51.828;7.872;2022-09-12T03:05:08;30.40;;;13.90;;
66601;SDS011;53459;51.828;7.872;2022-09-12T03:23:10;43.08;;;16.42;;
66601;SDS011;53459;51.828;7.872;2022-09-12T03:32:05;31.52;;;13.82;;
66601;SDS011;53459;51.828;7.872;2022-09-12T03:34:34;27.25;;;12.93;;
66601;SDS011;53459;51.828;7.872;2022-09-12T03:36:59;27.63;;;13.23;;
66601;SDS011;53459;51.828;7.872;2022-09-12T03:39:25;26.10;;;12.32;;
66601;SDS011;53459;51.828;7.872;2022-09-12T03:41:51;22.03;;;10.60;;
66601;SDS011;53459;51.828;7.872;2022-09-12T03:44:17;23.48;;;11.30;;
66601;SDS011;53459;51.828;7.872;2022-09-12T03:46:43;21.05;;;10.65;;
66601;SDS011;53459;51.828;7.872;2022-09-12T03:49:09;26.50;;;11.83;;
66601;SDS011;53459;51.828;7.872;2022-09-12T03:51:35;24.42;;;12.15;;
66601;SDS011;53459;51.828;7.872;2022-09-12T03:55:37;27.15;;;12.30;;
66601;SDS011;53459;51.828;7.872;2022-09-12T03:58:03;27.75;;;12.52;;
66601;SDS011;53459;51.828;7.872;2022-09-12T04:00:29;27.77;;;12.77;;
66601;SDS011;53459;51.828;7.872;2022-09-12T04:02:55;26.03;;;12.23;;
66601;SDS011;53459;51.828;7.872;2022-09-12T04:05:21;24.15;;;11.75;;
66601;SDS011;53459;51.828;7.872;2022-09-12T04:15:01;28.80;;;11.70;;
66601;SDS011;53459;51.828;7.872;2022-09-12T04:17:26;24.53;;;11.27;;
66601;SDS011;53459;51.828;7.872;2022-09-12T04:19:52;22.25;;;11.05;;
66601;SDS011;53459;51.828;7.872;2022-09-12T04:22:17;19.60;;;9.40;;
66601;SDS011;53459;51.828;7.872;2022-09-12T04:24:43;21.87;;;10.00;;
66601;SDS011;53459;51.828;7.872;2022-09-12T04:27:08;22.25;;;10.68;;
66601;SDS011;53459;51.828;7.872;2022-09-12T04:30:43;24.20;;;12.02;;
66601;SDS011;53459;51.828;7.872;2022-09-12T04:34:10;23.02;;;11.10;;
66601;SDS011;53459;51.828;7.872;2022-09-12T04:36:36;22.40;;;10.80;;
66601;SDS011;53459;51.828;7.872;2022-09-12T04:39:03;23.20;;;11.23;;
66601;SDS011;53459;51.828;7.872;2022-09-12T04:41:30;22.88;;;10.85;;
66601;SDS011;53459;51.828;7.872;2022-09-12T04:43:59;25.40;;;12.52;;
66601;SDS011;53459;51.828;7.872;2022-09-12T04:47:12;23.08;;;11.10;;
66601;SDS011;53459;51.828;7.872;2022-09-12T04:49:37;21.90;;;10.50;;
66601;SDS011;53459;51.828;7.872;2022-09-12T04:52:03;22.85;;;11.00;;
66601;SDS011;53459;51.828;7.872;2022-09-12T04:54:29;27.17;;;12.60;;
66601;SDS011;53459;51.828;7.872;2022-09-12T04:56:54;26.75;;;11.60;;
66601;SDS011;53459;51.828;7.872;2022-09-12T04:59:20;24.93;;;11.83;;
66601;SDS011;53459;51.828;7.872;2022-09-12T05:01:46;22.65;;;11.52;;
66601;SDS011;53459;51.828;7.872;2022-09-12T05:04:12;23.98;;;11.23;;
66601;SDS011;53459;51.828;7.872;2022-09-12T05:06:38;26.90;;;12.90;;
66601;SDS011;53459;51.828;7.872;2022-09-12T05:09:06;24.42;;;12.65;;
66601;SDS011;53459;51.828;7.872;2022-09-12T05:11:36;25.17;;;12.43;;
66601;SDS011;53459;51.828;7.872;2022-09-12T05:14:03;23.33;;;11.27;;
66601;SDS011;53459;51.828;7.872;2022-09-12T05:16:30;21.65;;;11.45;;
66601;SDS011;53459;51.828;7.872;2022-09-12T05:18:57;23.48;;;12.13;;
66601;SDS011;53459;51.828;7.872;2022-09-12T05:22:15;22.60;;;11.88;;
66601;SDS011;53459;51.828;7.872;2022-09-12T05:25:33;22.13;;;11.43;;
66601;SDS011;53459;51.828;7.872;2022-09-12T05:28:52;23.38;;;11.82;;
66601;SDS011;53459;51.828;7.872;2022-09-12T05:32:10;24.17;;;11.53;;
66601;SDS011;53459;51.828;7.872;2022-09-12T05:35:28;24.77;;;11.65;;
66601;SDS011;53459;51.828;7.872;2022-09-12T05:44:33;22.48;;;11.52;;
66601;SDS011;53459;51.828;7.872;2022-09-12T05:46:58;22.97;;;11.70;;
66601;SDS011;53459;51.828;7.872;2022-09-12T05:49:24;21.38;;;10.60;;
66601;SDS011;53459;51.828;7.872;2022-09-12T05:51:49;22.53;;;11.17;;
66601;SDS011;53459;51.828;7.872;2022-09-12T05:54:16;20.48;;;10.98;;
66601;SDS011;53459;51.828;7.872;2022-09-12T05:56:44;20.63;;;10.57;;
66601;SDS011;53459;51.828;7.872;2022-09-12T05:59:11;21.33;;;10.87;;
66601;SDS011;53459;51.828;7.872;2022-09-12T06:01:39;20.70;;;10.32;;
66601;SDS011;53459;51.828;7.872;2022-09-12T06:04:43;19.65;;;10.57;;
66601;SDS011;53459;51.828;7.872;2022-09-12T06:07:09;21.83;;;11.32;;
66601;SDS011;53459;51.828;7.872;2022-09-12T06:09:35;19.27;;;11.03;;
66601;SDS011;53459;51.828;7.872;2022-09-12T06:12:01;20.17;;;10.30;;
66601;SDS011;53459;51.828;7.872;2022-09-12T06:14:27;21.23;;;11.03;;
66601;SDS011;53459;51.828;7.872;2022-09-12T06:16:52;19.10;;;10.45;;
66601;SDS011;53459;51.828;7.872;2022-09-12T06:19:19;20.52;;;10.80;;
66601;SDS011;53459;51.828;7.872;2022-09-12T06:21:46;21.27;;;10.77;;
66601;SDS011;53459;51.828;7.872;2022-09-12T06:25:31;20.45;;;10.40;;
66601;SDS011;53459;51.828;7.872;2022-09-12T06:27:57;18.53;;;10.70;;
66601;SDS011;53459;51.828;7.872;2022-09-12T06:45:53;20.60;;;10.88;;
66601;SDS011;53459;51.828;7.872;2022-09-12T06:48:20;20.97;;;11.10;;
66601;SDS011;53459;51.828;7.872;2022-09-12T06:51:39;19.70;;;10.13;;
66601;SDS011;53459;51.828;7.872;2022-09-12T06:54:57;17.83;;;10.17;;
66601;SDS011;53459;51.828;7.872;2022-09-12T07:02:33;17.45;;;9.52;;
66601;SDS011;53459;51.828;7.872;2022-09-12T07:05:51;16.70;;;10.10;;
66601;SDS011;53459;51.828;7.872;2022-09-12T07:09:10;15.88;;;9.32;;
66601;SDS011;53459;51.828;7.872;2022-09-12T07:12:28;16.58;;;9.13;;
66601;SDS011;53459;51.828;7.872;2022-09-12T07:15:47;16.88;;;9.43;;
66601;SDS011;53459;51.828;7.872;2022-09-12T07:19:06;15.80;;;8.93;;
66601;SDS011;53459;51.828;7.872;2022-09-12T07:22:24;14.07;;;8.68;;
66601;SDS011;53459;51.828;7.872;2022-09-12T07:25:43;14.18;;;8.45;;
66601;SDS011;53459;51.828;7.872;2022-09-12T07:29:01;14.77;;;8.05;;
66601;SDS011;53459;51.828;7.872;2022-09-12T07:32:20;13.13;;;7.90;;
66601;SDS011;53459;51.828;7.872;2022-09-12T07:35:38;15.05;;;8.30;;
66601;SDS011;53459;51.828;7.872;2022-09-12T07:38:57;14.13;;;7.63;;
66601;SDS011;53459;51.828;7.872;2022-09-12T07:42:15;13.30;;;7.55;;
66601;SDS011;53459;51.828;7.872;2022-09-12T07:45:33;14.43;;;7.70;;
66601;SDS011;53459;51.828;7.872;2022-09-12T07:48:54;12.82;;;7.45;;
66601;SDS011;53459;51.828;7.872;2022-09-12T07:52:13;12.27;;;7.13;;
66601;SDS011;53459;51.828;7.872;2022-09-12T07:55:31;13.90;;;7.20;;
66601;SDS011;53459;51.828;7.872;2022-09-12T07:58:51;13.93;;;6.57;;
66601;SDS011;53459;51.828;7.872;2022-09-12T08:02:10;12.07;;;6.55;;
66601;SDS011;53459;51.828;7.872;2022-09-12T08:05:28;13.32;;;6.72;;
66601;SDS011;53459;51.828;7.872;2022-09-12T08:08:50;13.73;;;6.28;;
66601;SDS011;53459;51.828;7.872;2022-09-12T08:12:56;12.20;;;6.38;;
66601;SDS011;53459;51.828;7.872;2022-09-12T08:16:19;11.23;;;6.40;;
66601;SDS011;53459;51.828;7.872;2022-09-12T08:19:38;11.17;;;6.50;;
66601;SDS011;53459;51.828;7.872;2022-09-12T08:22:57;12.20;;;6.70;;
66601;SDS011;53459;51.828;7.872;2022-09-12T08:26:22;12.95;;;6.53;;
66601;SDS011;53459;51.828;7.872;2022-09-12T08:29:40;11.45;;;6.50;;
66601;SDS011;53459;51.828;7.872;2022-09-12T08:32:58;11.35;;;6.53;;
66601;SDS011;53459;51.828;7.872;2022-09-12T08:36:23;12.30;;;6.30;;
66601;SDS011;53459;51.828;7.872;2022-09-12T08:39:41;11.33;;;6.47;;
66601;SDS011;53459;51.828;7.872;2022-09-12T08:43:33;12.65;;;6.25;;
66601;SDS011;53459;51.828;7.872;2022-09-12T08:50:35;12.18;;;6.68;;
66601;SDS011;53459;51.828;7.872;2022-09-12T08:53:55;13.43;;;6.57;;
66601;SDS011;53459;51.828;7.872;2022-09-12T08:59:18;12.90;;;6.65;;
66601;SDS011;53459;51.828;7.872;2022-09-12T09:01:44;11.52;;;6.35;;
66601;SDS011;53459;51.828;7.872;2022-09-12T09:04:27;12.27;;;6.50;;
66601;SDS011;53459;51.828;7.872;2022-09-12T09:07:01;12.52;;;6.97;;
66601;SDS011;53459;51.828;7.872;2022-09-12T09:17:03;11.93;;;6.57;;
66601;SDS011;53459;51.828;7.872;2022-09-12T09:25:17;12.18;;;6.50;;
66601;SDS011;53459;51.828;7.872;2022-09-12T09:28:22;12.50;;;6.95;;
66601;SDS011;53459;51.828;7.872;2022-09-12T09:30:55;14.52;;;7.20;;
66601;SDS011;53459;51.828;7.872;2022-09-12T09:33:22;13.07;;;6.90;;
66601;SDS011;53459;51.828;7.872;2022-09-12T09:40:58;13.93;;;7.10;;
66601;SDS011;53459;51.828;7.872;2022-09-12T09:43:30;12.88;;;6.68;;
66601;SDS011;53459;51.828;7.872;2022-09-12T09:46:31;13.20;;;6.93;;
66601;SDS011;53459;51.828;7.872;2022-09-12T09:48:57;13.30;;;6.80;;
66601;SDS011;53459;51.828;7.872;2022-09-12T09:51:28;13.35;;;7.07;;
66601;SDS011;53459;51.828;7.872;2022-09-12T09:54:00;14.30;;;7.40;;
66601;SDS011;53459;51.828;7.872;2022-09-12T09:59:10;13.13;;;7.15;;
66601;SDS011;53459;51.828;7.872;2022-09-12T10:01:50;13.18;;;7.03;;
66601;SDS011;53459;51.828;7.872;2022-09-12T10:04:25;13.33;;;7.00;;
66601;SDS011;53459;51.828;7.872;2022-09-12T10:07:00;13.35;;;6.75;;
66601;SDS011;53459;51.828;7.872;2022-09-12T10:09:28;16.83;;;7.43;;
66601;SDS011;53459;51.828;7.872;2022-09-12T10:11:58;12.10;;;6.28;;
66601;SDS011;53459;51.828;7.872;2022-09-12T10:14:27;12.85;;;7.10;;
66601;SDS011;53459;51.828;7.872;2022-09-12T10:19:32;13.20;;;7.28;;
66601;SDS011;53459;51.828;7.872;2022-09-12T10:21:59;12.10;;;7.47;;
66601;SDS011;53459;51.828;7.872;2022-09-12T10:24:32;11.68;;;6.53;;
66601;SDS011;53459;51.828;7.872;2022-09-12T10:27:18;14.45;;;8.77;;
66601;SDS011;53459;51.828;7.872;2022-09-12T10:29:49;14.63;;;7.90;;
66601;SDS011;53459;51.828;7.872;2022-09-12T10:32:26;14.00;;;7.80;;
66601;SDS011;53459;51.828;7.872;2022-09-12T10:35:02;14.65;;;8.05;;
66601;SDS011;53459;51.828;7.872;2022-09-12T10:40:04;13.73;;;8.32;;
66601;SDS011;53459;51.828;7.872;2022-09-12T10:42:47;16.35;;;8.65;;
66601;SDS011;53459;51.828;7.872;2022-09-12T10:47:52;13.63;;;8.35;;
66601;SDS011;53459;51.828;7.872;2022-09-12T10:50:26;15.00;;;8.18;;
66601;SDS011;53459;51.828;7.872;2022-09-12T10:53:40;13.97;;;8.17;;
66601;SDS011;53459;51.828;7.872;2022-09-12T11:01:07;12.88;;;7.47;;
66601;SDS011;53459;51.828;7.872;2022-09-12T11:03:48;14.02;;;8.38;;
66601;SDS011;53459;51.828;7.872;2022-09-12T11:06:16;11.65;;;6.93;;
66601;SDS011;53459;51.828;7.872;2022-09-12T11:08:58;13.80;;;7.65;;
66601;SDS011;53459;51.828;7.872;2022-09-12T11:11:33;10.90;;;6.77;;
66601;SDS011;53459;51.828;7.872;2022-09-12T11:16:48;10.43;;;6.20;;
66601;SDS011;53459;51.828;7.872;2022-09-12T11:19:26;11.07;;;5.75;;
66601;SDS011;53459;51.828;7.872;2022-09-12T11:22:54;10.10;;;6.28;;
66601;SDS011;53459;51.828;7.872;2022-09-12T11:31:38;8.38;;;4.90;;
66601;SDS011;53459;51.828;7.872;2022-09-12T11:34:09;8.82;;;5.32;;
66601;SDS011;53459;51.828;7.872;2022-09-12T11:47:12;9.95;;;5.78;;
66601;SDS011;53459;51.828;7.872;2022-09-12T11:50:35;9.63;;;5.28;;
66601;SDS011;53459;51.828;7.872;2022-09-12T11:54:34;8.70;;;5.30;;
66601;SDS011;53459;51.828;7.872;2022-09-12T11:57:58;9.35;;;5.63;;
66601;SDS011;53459;51.828;7.872;2022-09-12T12:08:52;9.40;;;5.43;;
66601;SDS011;53459;51.828;7.872;2022-09-12T12:11:32;8.47;;;4.43;;
66601;SDS011;53459;51.828;7.872;2022-09-12T12:14:03;10.48;;;5.10;;
66601;SDS011;53459;51.828;7.872;2022-09-12T12:16:37;9.25;;;5.20;;
66601;SDS011;53459;51.828;7.872;2022-09-12T12:19:58;9.25;;;4.95;;
66601;SDS011;53459;51.828;7.872;2022-09-12T12:23:36;7.88;;;4.72;;
66601;SDS011;53459;51.828;7.872;2022-09-12T12:26:59;8.93;;;5.20;;
66601;SDS011;53459;51.828;7.872;2022-09-12T12:43:38;5.93;;;3.70;;
66601;SDS011;53459;51.828;7.872;2022-09-12T12:46:04;6.83;;;3.63;;
66601;SDS011;53459;51.828;7.872;2022-09-12T12:48:34;6.63;;;3.87;;
66601;SDS011;53459;51.828;7.872;2022-09-12T12:53:59;7.15;;;4.05;;
66601;SDS011;53459;51.828;7.872;2022-09-12T12:56:28;7.35;;;3.45;;
66601;SDS011;53459;51.828;7.872;2022-09-12T12:59:00;6.82;;;3.95;;
66601;SDS011;53459;51.828;7.872;2022-09-12T13:01:36;7.47;;;3.50;;
66601;SDS011;53459;51.828;7.872;2022-09-12T13:04:26;6.78;;;3.70;;
66601;SDS011;53459;51.828;7.872;2022-09-12T13:09:30;6.63;;;3.80;;
66601;SDS011;53459;51.828;7.872;2022-09-12T13:12:02;7.70;;;3.42;;
66601;SDS011;53459;51.828;7.872;2022-09-12T13:14:33;6.57;;;3.70;;
66601;SDS011;53459;51.828;7.872;2022-09-12T13:17:03;7.60;;;3.10;;
66601;SDS011;53459;51.828;7.872;2022-09-12T13:19:31;5.00;;;2.70;;
66601;SDS011;53459;51.828;7.872;2022-09-12T13:22:01;5.32;;;2.75;;
66601;SDS011;53459;51.828;7.872;2022-09-12T13:24:32;4.93;;;2.67;;
66601;SDS011;53459;51.828;7.872;2022-09-12T13:28:42;5.00;;;2.80;;
66601;SDS011;53459;51.828;7.872;2022-09-12T13:31:14;5.20;;;2.50;;
66601;SDS011;53459;51.828;7.872;2022-09-12T13:44:49;5.60;;;3.00;;
66601;SDS011;53459;51.828;7.872;2022-09-12T13:48:15;7.22;;;3.08;;
66601;SDS011;53459;51.828;7.872;2022-09-12T13:51:59;5.43;;;2.70;;
66601;SDS011;53459;51.828;7.872;2022-09-12T13:55:30;5.10;;;2.80;;
66601;SDS011;53459;51.828;7.872;2022-09-12T14:02:20;6.05;;;2.90;;
66601;SDS011;53459;51.828;7.872;2022-09-12T14:06:17;6.68;;;2.90;;
66601;SDS011;53459;51.828;7.872;2022-09-12T14:09:44;5.67;;;3.00;;
66601;SDS011;53459;51.828;7.872;2022-09-12T14:57:32;5.53;;;3.17;;
66601;SDS011;53459;51.828;7.872;2022-09-12T15:00:04;6.03;;;3.33;;
66601;SDS011;53459;51.828;7.872;2022-09-12T15:02:33;5.10;;;3.10;;
66601;SDS011;53459;51.828;7.872;2022-09-12T15:15:33;6.18;;;3.38;;
66601;SDS011;53459;51.828;7.872;2022-09-12T15:18:03;6.18;;;3.30;;
66601;SDS011;53459;51.828;7.872;2022-09-12T15:20:30;6.07;;;3.00;;
66601;SDS011;53459;51.828;7.872;2022-09-12T15:22:56;6.40;;;2.90;;
66601;SDS011;53459;51.828;7.872;2022-09-12T15:25:22;5.40;;;3.10;;
66601;SDS011;53459;51.828;7.872;2022-09-12T15:27:51;5.63;;;2.90;;
66601;SDS011;53459;51.828;7.872;2022-09-12T15:30:18;6.40;;;3.00;;
66601;SDS011;53459;51.828;7.872;2022-09-12T15:32:44;8.18;;;3.03;;
66601;SDS011;53459;51.828;7.872;2022-09-12T15:35:16;7.35;;;3.78;;
66601;SDS011;53459;51.828;7.872;2022-09-12T15:37:47;6.85;;;3.38;;
66601;SDS011;53459;51.828;7.872;2022-09-12T15:40:14;6.28;;;3.20;;
66601;SDS011;53459;51.828;7.872;2022-09-12T15:42:40;5.25;;;2.88;;
66601;SDS011;53459;51.828;7.872;2022-09-12T15:45:17;5.80;;;2.90;;
66601;SDS011;53459;51.828;7.872;2022-09-12T15:47:45;5.90;;;3.10;;
66601;SDS011;53459;51.828;7.872;2022-09-12T15:54:43;5.95;;;3.10;;
66601;SDS011;53459;51.828;7.872;2022-09-12T15:57:09;5.45;;;3.05;;
66601;SDS011;53459;51.828;7.872;2022-09-12T15:59:34;6.10;;;3.20;;
66601;SDS011;53459;51.828;7.872;2022-09-12T16:02:00;7.03;;;3.20;;
66601;SDS011;53459;51.828;7.872;2022-09-12T16:04:27;7.72;;;3.30;;
66601;SDS011;53459;51.828;7.872;2022-09-12T16:06:54;8.55;;;3.10;;
66601;SDS011;53459;51.828;7.872;2022-09-12T16:09:21;6.73;;;3.20;;
66601;SDS011;53459;51.828;7.872;2022-09-12T16:11:47;5.88;;;3.30;;
66601;SDS011;53459;51.828;7.872;2022-09-12T16:14:16;6.10;;;3.00;;
66601;SDS011;53459;51.828;7.872;2022-09-12T16:16:43;6.20;;;2.92;;
66601;SDS011;53459;51.828;7.872;2022-09-12T16:19:15;5.80;;;2.90;;
66601;SDS011;53459;51.828;7.872;2022-09-12T16:21:40;5.60;;;2.80;;
66601;SDS011;53459;51.828;7.872;2022-09-12T16:24:06;5.07;;;2.73;;
66601;SDS011;53459;51.828;7.872;2022-09-12T16:26:32;8.70;;;3.20;;
66601;SDS011;53459;51.828;7.872;2022-09-12T16:28:58;7.43;;;3.03;;
66601;SDS011;53459;51.828;7.872;2022-09-12T16:31:24;5.35;;;2.70;;
66601;SDS011;53459;51.828;7.872;2022-09-12T16:33:51;5.87;;;2.83;;
66601;SDS011;53459;51.828;7.872;2022-09-12T16:36:18;6.17;;;3.03;;
66601;SDS011;53459;51.828;7.872;2022-09-12T16:38:46;6.53;;;2.97;;
66601;SDS011;53459;51.828;7.872;2022-09-12T16:41:13;6.03;;;2.88;;
66601;SDS011;53459;51.828;7.872;2022-09-12T16:43:40;5.28;;;2.65;;
66601;SDS011;53459;51.828;7.872;2022-09-12T16:46:16;6.18;;;3.10;;
66601;SDS011;53459;51.828;7.872;2022-09-12T16:50:08;6.50;;;2.90;;
66601;SDS011;53459;51.828;7.872;2022-09-12T16:53:32;6.28;;;3.03;;
66601;SDS011;53459;51.828;7.872;2022-09-12T16:55:59;6.00;;;3.10;;
66601;SDS011;53459;51.828;7.872;2022-09-12T16:58:25;6.53;;;2.92;;
66601;SDS011;53459;51.828;7.872;2022-09-12T17:00:58;7.20;;;3.00;;
66601;SDS011;53459;51.828;7.872;2022-09-12T17:03:28;8.48;;;3.00;;
66601;SDS011;53459;51.828;7.872;2022-09-12T17:09:58;8.85;;;3.30;;
66601;SDS011;53459;51.828;7.872;2022-09-12T17:12:23;6.83;;;3.00;;
66601;SDS011;53459;51.828;7.872;2022-09-12T17:14:50;6.90;;;2.90;;
66601;SDS011;53459;51.828;7.872;2022-09-12T17:17:15;6.03;;;2.85;;
66601;SDS011;53459;51.828;7.872;2022-09-12T17:19:41;6.78;;;3.47;;
66601;SDS011;53459;51.828;7.872;2022-09-12T17:22:07;5.47;;;2.88;;
66601;SDS011;53459;51.828;7.872;2022-09-12T17:24:33;6.38;;;3.00;;
66601;SDS011;53459;51.828;7.872;2022-09-12T17:26:59;8.73;;;3.10;;
66601;SDS011;53459;51.828;7.872;2022-09-12T17:29:25;7.10;;;3.03;;
66601;SDS011;53459;51.828;7.872;2022-09-12T17:31:51;6.97;;;3.15;;
66601;SDS011;53459;51.828;7.872;2022-09-12T17:34:19;7.80;;;3.33;;
66601;SDS011;53459;51.828;7.872;2022-09-12T17:36:44;6.35;;;3.10;;
66601;SDS011;53459;51.828;7.872;2022-09-12T17:40:03;6.75;;;3.10;;
66601;SDS011;53459;51.828;7.872;2022-09-12T17:43:21;7.15;;;3.42;;
66601;SDS011;53459;51.828;7.872;2022-09-12T17:46:40;7.25;;;3.20;;
66601;SDS011;53459;51.828;7.872;2022-09-12T17:49:58;8.67;;;3.60;;
66601;SDS011;53459;51.828;7.872;2022-09-12T17:53:16;8.40;;;3.30;;
66601;SDS011;53459;51.828;7.872;2022-09-12T17:56:36;9.68;;;3.55;;
66601;SDS011;53459;51.828;7.872;2022-09-12T17:59:54;7.10;;;3.55;;
66601;SDS011;53459;51.828;7.872;2022-09-12T18:03:31;8.55;;;3.55;;
66601;SDS011;53459;51.828;7.872;2022-09-12T18:13:58;11.73;;;4.00;;
66601;SDS011;53459;51.828;7.872;2022-09-12T18:17:16;10.35;;;3.80;;
66601;SDS011;53459;51.828;7.872;2022-09-12T18:20:34;11.65;;;3.83;;
66601;SDS011;53459;51.828;7.872;2022-09-12T18:23:56;10.90;;;3.75;;
66601;SDS011;53459;51.828;7.872;2022-09-12T18:27:14;16.27;;;4.25;;
66601;SDS011;53459;51.828;7.872;2022-09-12T18:30:33;13.15;;;4.40;;
66601;SDS011;53459;51.828;7.872;2022-09-12T18:33:52;15.15;;;4.40;;
66601;SDS011;53459;51.828;7.872;2022-09-12T18:41:18;15.05;;;4.45;;
66601;SDS011;53459;51.828;7.872;2022-09-12T18:44:06;15.43;;;4.38;;
66601;SDS011;53459;51.828;7.872;2022-09-12T18:46:32;15.05;;;5.10;;
66601;SDS011;53459;51.828;7.872;2022-09-12T18:48:59;12.07;;;4.10;;
66601;SDS011;53459;51.828;7.872;2022-09-12T18:51:30;12.40;;;4.90;;
66601;SDS011;53459;51.828;7.872;2022-09-12T18:54:02;16.90;;;5.47;;
66601;SDS011;53459;51.828;7.872;2022-09-12T18:56:34;13.57;;;4.67;;
66601;SDS011;53459;51.828;7.872;2022-09-12T18:59:02;16.50;;;5.33;;
66601;SDS011;53459;51.828;7.872;2022-09-12T19:01:30;14.57;;;5.20;;
66601;SDS011;53459;51.828;7.872;2022-09-12T19:03:58;14.38;;;5.20;;
66601;SDS011;53459;51.828;7.872;2022-09-12T19:07:16;13.15;;;5.18;;
66601;SDS011;53459;51.828;7.872;2022-09-12T19:10:34;14.32;;;5.45;;
66601;SDS011;53459;51.828;7.872;2022-09-12T19:32:59;10.13;;;4.93;;
66601;SDS011;53459;51.828;7.872;2022-09-12T19:35:24;12.15;;;4.80;;
66601;SDS011;53459;51.828;7.872;2022-09-12T19:37:50;10.57;;;4.90;;
66601;SDS011;53459;51.828;7.872;2022-09-12T19:40:17;10.30;;;5.10;;
66601;SDS011;53459;51.828;7.872;2022-09-12T19:42:43;11.10;;;5.28;;
66601;SDS011;53459;51.828;7.872;2022-09-12T19:45:08;10.07;;;4.80;;
66601;SDS011;53459;51.828;7.872;2022-09-12T19:50:06;13.40;;;5.50;;
66601;SDS011;53459;51.828;7.872;2022-09-12T19:52:32;10.27;;;4.97;;
66601;SDS011;53459;51.828;7.872;2022-09-12T19:54:58;11.63;;;5.00;;
66601;SDS011;53459;51.828;7.872;2022-09-12T19:57:23;11.67;;;5.67;;
66601;SDS011;53459;51.828;7.872;2022-09-12T19:59:49;9.03;;;4.93;;
66601;SDS011;53459;51.828;7.872;2022-09-12T20:02:14;10.27;;;5.27;;
66601;SDS011;53459;51.828;7.872;2022-09-12T20:04:40;12.23;;;5.63;;
66601;SDS011;53459;51.828;7.872;2022-09-12T20:07:06;12.50;;;5.70;;
66601;SDS011;53459;51.828;7.872;2022-09-12T20:09:31;11.27;;;6.20;;
66601;SDS011;53459;51.828;7.872;2022-09-12T20:11:57;11.80;;;5.87;;
66601;SDS011;53459;51.828;7.872;2022-09-12T20:14:22;10.68;;;5.60;;
66601;SDS011;53459;51.828;7.872;2022-09-12T20:16:48;10.17;;;5.53;;
66601;SDS011;53459;51.828;7.872;2022-09-12T20:19:14;10.77;;;5.53;;
66601;SDS011;53459;51.828;7.872;2022-09-12T20:21:40;9.80;;;5.45;;
66601;SDS011;53459;51.828;7.872;2022-09-12T20:24:08;11.10;;;5.57;;
66601;SDS011;53459;51.828;7.872;2022-09-12T20:26:36;9.82;;;5.40;;
66601;SDS011;53459;51.828;7.872;2022-09-12T20:29:02;9.32;;;5.10;;
66601;SDS011;53459;51.828;7.872;2022-09-12T20:36:03;9.95;;;5.38;;
66601;SDS011;53459;51.828;7.872;2022-09-12T20:38:31;10.40;;;5.00;;
66601;SDS011;53459;51.828;7.872;2022-09-12T20:41:49;10.45;;;5.60;;
66601;SDS011;53459;51.828;7.872;2022-09-12T20:45:07;11.18;;;5.45;;
66601;SDS011;53459;51.828;7.872;2022-09-12T21:10:05;12.20;;;4.82;;
66601;SDS011;53459;51.828;7.872;2022-09-12T21:12:31;7.68;;;4.15;;
66601;SDS011;53459;51.828;7.872;2022-09-12T21:14:56;8.67;;;4.77;;
66601;SDS011;53459;51.828;7.872;2022-09-12T21:18:21;9.95;;;4.65;;
66601;SDS011;53459;51.828;7.872;2022-09-12T21:21:40;8.68;;;4.70;;
66601;SDS011;53459;51.828;7.872;2022-09-12T21:32:34;9.10;;;4.95;;
66601;SDS011;53459;51.828;7.872;2022-09-12T21:35:00;9.85;;;5.05;;
66601;SDS011;53459;51.828;7.872;2022-09-12T21:40:19;8.73;;;4.68;;
66601;SDS011;53459;51.828;7.872;2022-09-12T21:42:46;8.30;;;4.40;;
66601;SDS011;53459;51.828;7.872;2022-09-12T21:45:13;9.27;;;4.80;;
66601;SDS011;53459;51.828;7.872;2022-09-12T21:47:39;9.87;;;4.77;;
66601;SDS011;53459;51.828;7.872;2022-09-12T21:50:05;9.13;;;4.50;;
66601;SDS011;53459;51.828;7.872;2022-09-12T21:52:32;9.38;;;4.80;;
66601;SDS011;53459;51.828;7.872;2022-09-12T21:54:57;8.10;;;4.47;;
66601;SDS011;53459;51.828;7.872;2022-09-12T21:58:44;9.82;;;4.22;;
66601;SDS011;53459;51.828;7.872;2022-09-12T22:01:10;8.40;;;4.50;;
66601;SDS011;53459;51.828;7.872;2022-09-12T22:03:36;9.93;;;4.55;;
66601;SDS011;53459;51.828;7.872;2022-09-12T22:06:02;8.38;;;4.68;;
66601;SDS011;53459;51.828;7.872;2022-09-12T22:08:30;8.93;;;4.30;;
66601;SDS011;53459;51.828;7.872;2022-09-12T22:11:00;9.25;;;4.47;;
66601;SDS011;53459;51.828;7.872;2022-09-12T22:13:28;8.57;;;4.30;;
66601;SDS011;53459;51.828;7.872;2022-09-12T22:15:57;9.05;;;4.30;;
66601;SDS011;53459;51.828;7.872;2022-09-12T22:19:07;9.68;;;4.68;;
66601;SDS011;53459;51.828;7.872;2022-09-12T22:22:36;9.85;;;4.75;;
66601;SDS011;53459;51.828;7.872;2022-09-12T22:25:21;8.32;;;4.40;;
66601;SDS011;53459;51.828;7.872;2022-09-12T22:27:50;8.32;;;4.53;;
66601;SDS011;53459;51.828;7.872;2022-09-12T22:30:17;8.02;;;4.43;;